sensor_id;sensor_type;location;lat;lon;timestamp;P1;durP1;ratioP1;P2;durP2;ratioP2
53269;SDS011;39159;45.634;9.420;2023-02-13T00:00:29;73.45;;;36.90;;
53269;SDS011;39159;45.634;9.420;2023-02-13T00:02:54;77.57;;;39.63;;
53269;SDS011;39159;45.634;9.420;2023-02-13T00:05:19;79.75;;;38.97;;
53269;SDS011;39159;45.634;9.420;2023-02-13T00:07:45;77.75;;;39.45;;
53269;SDS011;39159;45.634;9.420;2023-02-13T00:10:10;72.32;;;38.17;;
53269;SDS011;39159;45.634;9.420;2023-02-13T00:12:36;75.70;;;38.42;;
53269;SDS011;39159;45.634;9.420;2023-02-13T00:15:01;74.03;;;38.13;;
53269;SDS011;39159;45.634;9.420;2023-02-13T00:17:27;77.07;;;36.92;;
53269;SDS011;39159;45.634;9.420;2023-02-13T00:19:53;70.28;;;37.30;;
53269;SDS011;39159;45.634;9.420;2023-02-13T00:22:18;74.03;;;37.60;;
53269;SDS011;39159;45.634;9.420;2023-02-13T00:24:44;74.35;;;37.65;;
53269;SDS011;39159;45.634;9.420;2023-02-13T00:27:09;70.53;;;37.10;;
53269;SDS011;39159;45.634;9.420;2023-02-13T00:29:34;71.07;;;37.70;;
53269;SDS011;39159;45.634;9.420;2023-02-13T00:32:00;74.43;;;37.70;;
53269;SDS011;39159;45.634;9.420;2023-02-13T00:34:26;69.75;;;38.65;;
53269;SDS011;39159;45.634;9.420;2023-02-13T00:36:52;70.00;;;37.03;;
53269;SDS011;39159;45.634;9.420;2023-02-13T00:39:17;72.60;;;35.95;;
53269;SDS011;39159;45.634;9.420;2023-02-13T00:41:43;65.25;;;35.65;;
53269;SDS011;39159;45.634;9.420;2023-02-13T00:44:08;77.07;;;37.58;;
53269;SDS011;39159;45.634;9.420;2023-02-13T00:46:34;69.22;;;35.30;;
53269;SDS011;39159;45.634;9.420;2023-02-13T00:49:00;70.68;;;37.67;;
53269;SDS011;39159;45.634;9.420;2023-02-13T00:51:26;73.97;;;36.88;;
53269;SDS011;39159;45.634;9.420;2023-02-13T00:53:51;69.00;;;35.97;;
53269;SDS011;39159;45.634;9.420;2023-02-13T00:56:17;66.18;;;34.53;;
53269;SDS011;39159;45.634;9.420;2023-02-13T00:58:42;68.63;;;33.70;;
53269;SDS011;39159;45.634;9.420;2023-02-13T01:01:07;67.85;;;35.03;;
53269;SDS011;39159;45.634;9.420;2023-02-13T01:03:33;62.85;;;33.17;;
53269;SDS011;39159;45.634;9.420;2023-02-13T01:05:58;62.75;;;33.63;;
53269;SDS011;39159;45.634;9.420;2023-02-13T01:08:24;69.55;;;33.22;;
53269;SDS011;39159;45.634;9.420;2023-02-13T01:10:52;60.72;;;32.17;;
53269;SDS011;39159;45.634;9.420;2023-02-13T01:13:18;72.82;;;34.67;;
53269;SDS011;39159;45.634;9.420;2023-02-13T01:15:45;66.82;;;33.65;;
53269;SDS011;39159;45.634;9.420;2023-02-13T01:18:12;66.25;;;34.15;;
53269;SDS011;39159;45.634;9.420;2023-02-13T01:20:42;63.60;;;32.03;;
53269;SDS011;39159;45.634;9.420;2023-02-13T01:23:08;61.42;;;32.97;;
53269;SDS011;39159;45.634;9.420;2023-02-13T01:25:34;63.30;;;32.35;;
53269;SDS011;39159;45.634;9.420;2023-02-13T01:27:59;73.13;;;34.08;;
53269;SDS011;39159;45.634;9.420;2023-02-13T01:30:25;63.58;;;32.63;;
53269;SDS011;39159;45.634;9.420;2023-02-13T01:32:50;64.60;;;32.22;;
53269;SDS011;39159;45.634;9.420;2023-02-13T01:35:16;62.67;;;32.42;;
53269;SDS011;39159;45.634;9.420;2023-02-13T01:37:41;69.00;;;34.08;;
53269;SDS011;39159;45.634;9.420;2023-02-13T01:40:09;67.47;;;31.83;;
53269;SDS011;39159;45.634;9.420;2023-02-13T01:42:36;65.68;;;31.85;;
53269;SDS011;39159;45.634;9.420;2023-02-13T01:47:28;61.40;;;31.15;;
53269;SDS011;39159;45.634;9.420;2023-02-13T01:50:22;60.30;;;30.65;;
53269;SDS011;39159;45.634;9.420;2023-02-13T01:55:36;55.05;;;28.50;;
53269;SDS011;39159;45.634;9.420;2023-02-13T01:58:12;60.97;;;28.02;;
53269;SDS011;39159;45.634;9.420;2023-02-13T02:00:43;61.65;;;28.35;;
53269;SDS011;39159;45.634;9.420;2023-02-13T02:03:15;53.35;;;27.33;;
53269;SDS011;39159;45.634;9.420;2023-02-13T02:05:44;58.83;;;28.98;;
53269;SDS011;39159;45.634;9.420;2023-02-13T02:08:11;59.25;;;28.42;;
53269;SDS011;39159;45.634;9.420;2023-02-13T02:10:38;58.65;;;28.50;;
53269;SDS011;39159;45.634;9.420;2023-02-13T02:13:10;57.63;;;28.98;;
53269;SDS011;39159;45.634;9.420;2023-02-13T02:15:38;60.40;;;29.30;;
53269;SDS011;39159;45.634;9.420;2023-02-13T02:18:09;60.58;;;28.65;;
53269;SDS011;39159;45.634;9.420;2023-02-13T02:45:27;58.78;;;28.55;;
53269;SDS011;39159;45.634;9.420;2023-02-13T02:51:15;51.28;;;28.17;;
53269;SDS011;39159;45.634;9.420;2023-02-13T02:56:51;53.47;;;27.10;;
53269;SDS011;39159;45.634;9.420;2023-02-13T02:59:20;50.13;;;27.23;;
53269;SDS011;39159;45.634;9.420;2023-02-13T03:02:07;54.70;;;28.08;;
53269;SDS011;39159;45.634;9.420;2023-02-13T03:05:20;51.60;;;27.63;;
53269;SDS011;39159;45.634;9.420;2023-02-13T03:08:14;55.55;;;28.55;;
53269;SDS011;39159;45.634;9.420;2023-02-13T03:11:01;57.75;;;27.40;;
53269;SDS011;39159;45.634;9.420;2023-02-13T03:13:45;55.22;;;28.15;;
53269;SDS011;39159;45.634;9.420;2023-02-13T03:16:18;53.35;;;28.65;;
53269;SDS011;39159;45.634;9.420;2023-02-13T03:19:11;54.58;;;26.17;;
53269;SDS011;39159;45.634;9.420;2023-02-13T03:22:05;51.95;;;26.70;;
53269;SDS011;39159;45.634;9.420;2023-02-13T03:27:37;49.20;;;26.33;;
53269;SDS011;39159;45.634;9.420;2023-02-13T03:41:23;51.22;;;25.88;;
53269;SDS011;39159;45.634;9.420;2023-02-13T03:46:25;50.60;;;26.03;;
53269;SDS011;39159;45.634;9.420;2023-02-13T03:48:53;47.80;;;24.27;;
53269;SDS011;39159;45.634;9.420;2023-02-13T03:51:41;48.38;;;24.92;;
53269;SDS011;39159;45.634;9.420;2023-02-13T03:54:16;50.63;;;26.08;;
53269;SDS011;39159;45.634;9.420;2023-02-13T03:56:46;49.72;;;23.50;;
53269;SDS011;39159;45.634;9.420;2023-02-13T03:59:34;47.17;;;25.88;;
53269;SDS011;39159;45.634;9.420;2023-02-13T04:02:11;45.08;;;23.85;;
53269;SDS011;39159;45.634;9.420;2023-02-13T04:04:52;53.83;;;26.17;;
53269;SDS011;39159;45.634;9.420;2023-02-13T04:07:24;49.42;;;25.90;;
53269;SDS011;39159;45.634;9.420;2023-02-13T04:09:58;47.70;;;24.73;;
53269;SDS011;39159;45.634;9.420;2023-02-13T04:18:08;47.15;;;24.90;;
53269;SDS011;39159;45.634;9.420;2023-02-13T04:20:39;46.00;;;24.40;;
53269;SDS011;39159;45.634;9.420;2023-02-13T04:23:05;47.50;;;24.50;;
53269;SDS011;39159;45.634;9.420;2023-02-13T04:25:32;48.63;;;25.40;;
53269;SDS011;39159;45.634;9.420;2023-02-13T04:27:59;47.60;;;25.33;;
53269;SDS011;39159;45.634;9.420;2023-02-13T04:30:25;52.42;;;24.98;;
53269;SDS011;39159;45.634;9.420;2023-02-13T04:32:50;46.25;;;24.25;;
53269;SDS011;39159;45.634;9.420;2023-02-13T04:35:16;54.55;;;24.90;;
53269;SDS011;39159;45.634;9.420;2023-02-13T04:37:42;48.25;;;24.77;;
53269;SDS011;39159;45.634;9.420;2023-02-13T04:40:08;49.67;;;24.48;;
53269;SDS011;39159;45.634;9.420;2023-02-13T04:42:33;50.75;;;24.70;;
53269;SDS011;39159;45.634;9.420;2023-02-13T04:44:59;48.38;;;24.58;;
53269;SDS011;39159;45.634;9.420;2023-02-13T04:47:24;49.35;;;24.45;;
53269;SDS011;39159;45.634;9.420;2023-02-13T04:49:50;47.45;;;24.65;;
53269;SDS011;39159;45.634;9.420;2023-02-13T04:52:15;46.50;;;23.95;;
53269;SDS011;39159;45.634;9.420;2023-02-13T04:54:41;50.33;;;24.35;;
53269;SDS011;39159;45.634;9.420;2023-02-13T04:57:06;49.13;;;24.95;;
53269;SDS011;39159;45.634;9.420;2023-02-13T04:59:31;41.28;;;23.35;;
53269;SDS011;39159;45.634;9.420;2023-02-13T05:01:57;52.25;;;24.98;;
53269;SDS011;39159;45.634;9.420;2023-02-13T05:04:23;45.17;;;23.85;;
53269;SDS011;39159;45.634;9.420;2023-02-13T05:06:49;45.33;;;22.98;;
53269;SDS011;39159;45.634;9.420;2023-02-13T05:09:15;46.38;;;23.30;;
53269;SDS011;39159;45.634;9.420;2023-02-13T05:11:40;40.95;;;22.95;;
53269;SDS011;39159;45.634;9.420;2023-02-13T05:14:06;48.17;;;23.70;;
53269;SDS011;39159;45.634;9.420;2023-02-13T05:16:31;46.95;;;24.10;;
53269;SDS011;39159;45.634;9.420;2023-02-13T05:18:57;50.45;;;25.20;;
53269;SDS011;39159;45.634;9.420;2023-02-13T05:21:22;43.88;;;23.67;;
53269;SDS011;39159;45.634;9.420;2023-02-13T05:24:06;43.17;;;22.60;;
53269;SDS011;39159;45.634;9.420;2023-02-13T05:26:32;44.83;;;23.63;;
53269;SDS011;39159;45.634;9.420;2023-02-13T05:28:57;43.30;;;22.85;;
53269;SDS011;39159;45.634;9.420;2023-02-13T05:31:41;48.25;;;23.17;;
53269;SDS011;39159;45.634;9.420;2023-02-13T05:34:07;46.67;;;23.23;;
53269;SDS011;39159;45.634;9.420;2023-02-13T05:36:32;49.88;;;24.40;;
53269;SDS011;39159;45.634;9.420;2023-02-13T05:38:57;45.75;;;23.50;;
53269;SDS011;39159;45.634;9.420;2023-02-13T05:41:23;45.38;;;23.10;;
53269;SDS011;39159;45.634;9.420;2023-02-13T05:43:48;45.40;;;23.98;;
53269;SDS011;39159;45.634;9.420;2023-02-13T05:46:14;45.55;;;23.38;;
53269;SDS011;39159;45.634;9.420;2023-02-13T05:48:39;44.22;;;24.00;;
53269;SDS011;39159;45.634;9.420;2023-02-13T05:51:05;44.72;;;23.50;;
53269;SDS011;39159;45.634;9.420;2023-02-13T05:53:31;45.95;;;23.83;;
53269;SDS011;39159;45.634;9.420;2023-02-13T05:55:59;46.53;;;24.10;;
53269;SDS011;39159;45.634;9.420;2023-02-13T05:58:25;44.25;;;23.25;;
53269;SDS011;39159;45.634;9.420;2023-02-13T06:00:53;44.65;;;23.52;;
53269;SDS011;39159;45.634;9.420;2023-02-13T06:03:20;46.90;;;24.55;;
53269;SDS011;39159;45.634;9.420;2023-02-13T06:05:45;45.30;;;23.73;;
53269;SDS011;39159;45.634;9.420;2023-02-13T06:08:11;46.88;;;23.58;;
53269;SDS011;39159;45.634;9.420;2023-02-13T06:10:36;44.45;;;23.98;;
53269;SDS011;39159;45.634;9.420;2023-02-13T06:13:02;45.90;;;23.60;;
53269;SDS011;39159;45.634;9.420;2023-02-13T06:15:27;44.45;;;23.38;;
53269;SDS011;39159;45.634;9.420;2023-02-13T06:17:53;47.33;;;24.48;;
53269;SDS011;39159;45.634;9.420;2023-02-13T06:20:18;42.30;;;23.60;;
53269;SDS011;39159;45.634;9.420;2023-02-13T06:22:46;45.63;;;24.42;;
53269;SDS011;39159;45.634;9.420;2023-02-13T06:25:13;41.50;;;22.70;;
53269;SDS011;39159;45.634;9.420;2023-02-13T06:27:39;41.72;;;22.17;;
53269;SDS011;39159;45.634;9.420;2023-02-13T06:30:05;45.55;;;22.77;;
53269;SDS011;39159;45.634;9.420;2023-02-13T06:32:31;39.95;;;22.15;;
53269;SDS011;39159;45.634;9.420;2023-02-13T06:34:56;41.38;;;22.15;;
53269;SDS011;39159;45.634;9.420;2023-02-13T06:37:22;43.13;;;22.45;;
53269;SDS011;39159;45.634;9.420;2023-02-13T06:39:47;43.63;;;22.38;;
53269;SDS011;39159;45.634;9.420;2023-02-13T06:42:12;42.78;;;22.60;;
53269;SDS011;39159;45.634;9.420;2023-02-13T06:44:38;42.30;;;22.73;;
53269;SDS011;39159;45.634;9.420;2023-02-13T06:47:03;41.30;;;21.40;;
53269;SDS011;39159;45.634;9.420;2023-02-13T06:49:29;45.55;;;23.33;;
53269;SDS011;39159;45.634;9.420;2023-02-13T06:51:54;43.10;;;21.83;;
53269;SDS011;39159;45.634;9.420;2023-02-13T06:54:19;38.17;;;21.65;;
53269;SDS011;39159;45.634;9.420;2023-02-13T06:56:45;41.53;;;21.35;;
53269;SDS011;39159;45.634;9.420;2023-02-13T06:59:10;41.83;;;22.65;;
53269;SDS011;39159;45.634;9.420;2023-02-13T07:01:36;41.75;;;21.83;;
53269;SDS011;39159;45.634;9.420;2023-02-13T07:04:02;40.55;;;21.70;;
53269;SDS011;39159;45.634;9.420;2023-02-13T07:06:27;46.72;;;22.02;;
53269;SDS011;39159;45.634;9.420;2023-02-13T07:08:53;43.35;;;21.33;;
53269;SDS011;39159;45.634;9.420;2023-02-13T07:11:20;41.70;;;21.55;;
53269;SDS011;39159;45.634;9.420;2023-02-13T07:13:47;45.67;;;21.30;;
53269;SDS011;39159;45.634;9.420;2023-02-13T07:16:12;40.22;;;21.30;;
53269;SDS011;39159;45.634;9.420;2023-02-13T07:18:38;37.00;;;20.13;;
53269;SDS011;39159;45.634;9.420;2023-02-13T07:21:03;42.70;;;20.95;;
53269;SDS011;39159;45.634;9.420;2023-02-13T07:23:29;42.17;;;21.98;;
53269;SDS011;39159;45.634;9.420;2023-02-13T07:25:55;41.08;;;20.25;;
53269;SDS011;39159;45.634;9.420;2023-02-13T07:28:23;38.13;;;20.38;;
53269;SDS011;39159;45.634;9.420;2023-02-13T07:30:48;39.53;;;20.42;;
53269;SDS011;39159;45.634;9.420;2023-02-13T07:33:13;42.25;;;21.25;;
53269;SDS011;39159;45.634;9.420;2023-02-13T07:35:39;36.13;;;19.55;;
53269;SDS011;39159;45.634;9.420;2023-02-13T07:38:10;38.97;;;19.85;;
53269;SDS011;39159;45.634;9.420;2023-02-13T07:40:36;39.13;;;21.08;;
53269;SDS011;39159;45.634;9.420;2023-02-13T07:43:01;41.13;;;21.05;;
53269;SDS011;39159;45.634;9.420;2023-02-13T07:45:26;37.80;;;20.50;;
53269;SDS011;39159;45.634;9.420;2023-02-13T07:47:53;35.47;;;19.55;;
53269;SDS011;39159;45.634;9.420;2023-02-13T07:50:20;38.50;;;19.52;;
53269;SDS011;39159;45.634;9.420;2023-02-13T07:52:51;37.80;;;20.33;;
53269;SDS011;39159;45.634;9.420;2023-02-13T07:55:20;38.38;;;19.83;;
53269;SDS011;39159;45.634;9.420;2023-02-13T07:57:46;36.92;;;19.70;;
53269;SDS011;39159;45.634;9.420;2023-02-13T08:00:12;36.28;;;19.80;;
53269;SDS011;39159;45.634;9.420;2023-02-13T08:02:38;37.28;;;21.08;;
53269;SDS011;39159;45.634;9.420;2023-02-13T08:05:03;42.75;;;20.30;;
53269;SDS011;39159;45.634;9.420;2023-02-13T08:07:29;39.42;;;20.50;;
53269;SDS011;39159;45.634;9.420;2023-02-13T08:09:55;42.22;;;21.55;;
53269;SDS011;39159;45.634;9.420;2023-02-13T08:12:39;37.13;;;19.95;;
53269;SDS011;39159;45.634;9.420;2023-02-13T08:15:05;36.65;;;20.17;;
53269;SDS011;39159;45.634;9.420;2023-02-13T08:17:31;39.20;;;20.48;;
53269;SDS011;39159;45.634;9.420;2023-02-13T08:19:56;35.40;;;20.00;;
53269;SDS011;39159;45.634;9.420;2023-02-13T08:22:22;35.78;;;18.40;;
53269;SDS011;39159;45.634;9.420;2023-02-13T08:24:47;33.83;;;19.50;;
53269;SDS011;39159;45.634;9.420;2023-02-13T08:27:13;49.35;;;20.63;;
53269;SDS011;39159;45.634;9.420;2023-02-13T08:29:39;36.85;;;20.48;;
53269;SDS011;39159;45.634;9.420;2023-02-13T08:32:05;34.97;;;19.58;;
53269;SDS011;39159;45.634;9.420;2023-02-13T08:34:30;39.60;;;20.65;;
53269;SDS011;39159;45.634;9.420;2023-02-13T08:36:56;38.03;;;21.80;;
53269;SDS011;39159;45.634;9.420;2023-02-13T08:39:21;42.20;;;20.67;;
53269;SDS011;39159;45.634;9.420;2023-02-13T08:41:47;38.47;;;20.75;;
53269;SDS011;39159;45.634;9.420;2023-02-13T08:44:12;32.15;;;17.98;;
53269;SDS011;39159;45.634;9.420;2023-02-13T08:46:37;34.05;;;19.42;;
53269;SDS011;39159;45.634;9.420;2023-02-13T08:49:03;31.70;;;17.52;;
53269;SDS011;39159;45.634;9.420;2023-02-13T08:51:28;28.20;;;17.25;;
53269;SDS011;39159;45.634;9.420;2023-02-13T08:53:54;28.40;;;17.08;;
53269;SDS011;39159;45.634;9.420;2023-02-13T08:56:19;30.23;;;17.40;;
53269;SDS011;39159;45.634;9.420;2023-02-13T08:58:47;30.77;;;17.63;;
53269;SDS011;39159;45.634;9.420;2023-02-13T09:01:13;29.35;;;17.48;;
53269;SDS011;39159;45.634;9.420;2023-02-13T09:03:39;32.10;;;18.80;;
53269;SDS011;39159;45.634;9.420;2023-02-13T09:06:04;34.45;;;19.58;;
53269;SDS011;39159;45.634;9.420;2023-02-13T09:08:30;33.22;;;19.27;;
53269;SDS011;39159;45.634;9.420;2023-02-13T09:10:59;30.08;;;18.92;;
53269;SDS011;39159;45.634;9.420;2023-02-13T09:13:29;26.25;;;17.23;;
53269;SDS011;39159;45.634;9.420;2023-02-13T09:15:58;25.88;;;16.15;;
53269;SDS011;39159;45.634;9.420;2023-02-13T09:18:24;24.42;;;15.98;;
53269;SDS011;39159;45.634;9.420;2023-02-13T09:20:55;28.60;;;16.42;;
53269;SDS011;39159;45.634;9.420;2023-02-13T09:23:22;28.67;;;16.67;;
53269;SDS011;39159;45.634;9.420;2023-02-13T09:25:47;26.95;;;16.83;;
53269;SDS011;39159;45.634;9.420;2023-02-13T09:28:12;26.25;;;16.05;;
53269;SDS011;39159;45.634;9.420;2023-02-13T09:30:38;26.52;;;15.85;;
53269;SDS011;39159;45.634;9.420;2023-02-13T09:33:03;27.23;;;15.48;;
53269;SDS011;39159;45.634;9.420;2023-02-13T09:35:35;23.42;;;13.93;;
53269;SDS011;39159;45.634;9.420;2023-02-13T09:38:00;22.15;;;12.18;;
53269;SDS011;39159;45.634;9.420;2023-02-13T09:40:28;23.73;;;13.38;;
53269;SDS011;39159;45.634;9.420;2023-02-13T09:43:12;20.38;;;13.40;;
53269;SDS011;39159;45.634;9.420;2023-02-13T09:45:42;30.45;;;13.88;;
53269;SDS011;39159;45.634;9.420;2023-02-13T09:48:20;25.60;;;13.98;;
53269;SDS011;39159;45.634;9.420;2023-02-13T09:50:52;24.73;;;14.07;;
53269;SDS011;39159;45.634;9.420;2023-02-13T09:53:21;26.63;;;15.50;;
53269;SDS011;39159;45.634;9.420;2023-02-13T09:56:12;22.77;;;14.70;;
53269;SDS011;39159;45.634;9.420;2023-02-13T09:58:58;31.40;;;17.02;;
53269;SDS011;39159;45.634;9.420;2023-02-13T10:01:38;24.27;;;16.02;;
53269;SDS011;39159;45.634;9.420;2023-02-13T10:04:28;32.60;;;18.42;;
53269;SDS011;39159;45.634;9.420;2023-02-13T10:15:20;27.08;;;17.60;;
53269;SDS011;39159;45.634;9.420;2023-02-13T10:17:53;35.60;;;18.73;;
53269;SDS011;39159;45.634;9.420;2023-02-13T10:20:41;34.63;;;18.30;;
53269;SDS011;39159;45.634;9.420;2023-02-13T10:23:23;32.17;;;17.75;;
53269;SDS011;39159;45.634;9.420;2023-02-13T10:25:58;32.77;;;19.40;;
53269;SDS011;39159;45.634;9.420;2023-02-13T10:31:16;31.85;;;18.67;;
53269;SDS011;39159;45.634;9.420;2023-02-13T10:33:49;28.90;;;18.80;;
53269;SDS011;39159;45.634;9.420;2023-02-13T10:36:18;29.67;;;18.60;;
53269;SDS011;39159;45.634;9.420;2023-02-13T10:39:00;30.65;;;18.58;;
53269;SDS011;39159;45.634;9.420;2023-02-13T10:41:43;33.30;;;20.58;;
53269;SDS011;39159;45.634;9.420;2023-02-13T10:44:20;31.92;;;19.10;;
53269;SDS011;39159;45.634;9.420;2023-02-13T10:52:33;27.83;;;17.65;;
53269;SDS011;39159;45.634;9.420;2023-02-13T10:58:17;24.42;;;15.13;;
53269;SDS011;39159;45.634;9.420;2023-02-13T11:03:30;30.38;;;17.85;;
53269;SDS011;39159;45.634;9.420;2023-02-13T11:05:56;28.33;;;18.55;;
53269;SDS011;39159;45.634;9.420;2023-02-13T11:08:25;25.33;;;17.60;;
53269;SDS011;39159;45.634;9.420;2023-02-13T11:10:54;28.58;;;15.95;;
53269;SDS011;39159;45.634;9.420;2023-02-13T11:13:20;21.83;;;13.55;;
53269;SDS011;39159;45.634;9.420;2023-02-13T11:18:38;27.25;;;15.45;;
53269;SDS011;39159;45.634;9.420;2023-02-13T11:23:33;23.15;;;15.73;;
53269;SDS011;39159;45.634;9.420;2023-02-13T11:28:33;29.48;;;17.00;;
53269;SDS011;39159;45.634;9.420;2023-02-13T11:36:49;32.58;;;17.13;;
53269;SDS011;39159;45.634;9.420;2023-02-13T11:39:17;34.45;;;19.33;;
53269;SDS011;39159;45.634;9.420;2023-02-13T11:41:45;28.45;;;17.98;;
53269;SDS011;39159;45.634;9.420;2023-02-13T11:44:21;25.92;;;15.68;;
53269;SDS011;39159;45.634;9.420;2023-02-13T11:46:53;28.50;;;16.35;;
53269;SDS011;39159;45.634;9.420;2023-02-13T11:49:43;28.83;;;17.75;;
53269;SDS011;39159;45.634;9.420;2023-02-13T11:52:21;31.35;;;19.83;;
53269;SDS011;39159;45.634;9.420;2023-02-13T11:54:55;27.75;;;19.08;;
53269;SDS011;39159;45.634;9.420;2023-02-13T11:59:52;32.85;;;19.02;;
53269;SDS011;39159;45.634;9.420;2023-02-13T12:02:22;32.25;;;19.40;;
53269;SDS011;39159;45.634;9.420;2023-02-13T12:04:50;32.05;;;19.25;;
53269;SDS011;39159;45.634;9.420;2023-02-13T12:07:27;35.65;;;18.35;;
53269;SDS011;39159;45.634;9.420;2023-02-13T12:12:27;24.50;;;16.33;;
53269;SDS011;39159;45.634;9.420;2023-02-13T12:14:57;23.98;;;15.50;;
53269;SDS011;39159;45.634;9.420;2023-02-13T12:17:27;23.48;;;16.30;;
53269;SDS011;39159;45.634;9.420;2023-02-13T12:19:55;27.42;;;17.13;;
53269;SDS011;39159;45.634;9.420;2023-02-13T12:30:55;27.38;;;16.38;;
53269;SDS011;39159;45.634;9.420;2023-02-13T12:42:12;27.48;;;17.02;;
53269;SDS011;39159;45.634;9.420;2023-02-13T12:51:09;29.48;;;18.80;;
53269;SDS011;39159;45.634;9.420;2023-02-13T12:56:36;31.02;;;20.15;;
53269;SDS011;39159;45.634;9.420;2023-02-13T12:59:17;34.05;;;20.02;;
53269;SDS011;39159;45.634;9.420;2023-02-13T13:02:09;33.63;;;20.45;;
53269;SDS011;39159;45.634;9.420;2023-02-13T13:15:10;43.22;;;23.30;;
53269;SDS011;39159;45.634;9.420;2023-02-13T13:26:04;28.90;;;18.52;;
53269;SDS011;39159;45.634;9.420;2023-02-13T13:28:46;29.20;;;18.30;;
53269;SDS011;39159;45.634;9.420;2023-02-13T13:31:14;38.78;;;19.15;;
53269;SDS011;39159;45.634;9.420;2023-02-13T13:33:42;31.58;;;19.40;;
53269;SDS011;39159;45.634;9.420;2023-02-13T13:38:58;30.83;;;19.98;;
53269;SDS011;39159;45.634;9.420;2023-02-13T13:41:34;32.17;;;20.25;;
53269;SDS011;39159;45.634;9.420;2023-02-13T13:46:55;34.92;;;20.42;;
53269;SDS011;39159;45.634;9.420;2023-02-13T13:49:37;35.35;;;20.52;;
53269;SDS011;39159;45.634;9.420;2023-02-13T13:52:27;38.17;;;21.23;;
53269;SDS011;39159;45.634;9.420;2023-02-13T13:55:01;36.78;;;21.88;;
53269;SDS011;39159;45.634;9.420;2023-02-13T14:05:25;40.95;;;22.98;;
53269;SDS011;39159;45.634;9.420;2023-02-13T14:07:54;34.58;;;21.67;;
53269;SDS011;39159;45.634;9.420;2023-02-13T14:18:23;37.85;;;23.38;;
53269;SDS011;39159;45.634;9.420;2023-02-13T14:28:40;38.95;;;22.40;;
53269;SDS011;39159;45.634;9.420;2023-02-13T14:31:09;41.30;;;22.92;;
53269;SDS011;39159;45.634;9.420;2023-02-13T14:33:56;37.00;;;23.15;;
53269;SDS011;39159;45.634;9.420;2023-02-13T14:36:36;39.67;;;22.55;;
53269;SDS011;39159;45.634;9.420;2023-02-13T14:39:50;40.67;;;23.50;;
53269;SDS011;39159;45.634;9.420;2023-02-13T14:41:56;40.38;;;24.15;;
53269;SDS011;39159;45.634;9.420;2023-02-13T14:44:36;41.33;;;23.85;;
53269;SDS011;39159;45.634;9.420;2023-02-13T14:47:44;42.17;;;23.50;;
53269;SDS011;39159;45.634;9.420;2023-02-13T14:50:07;41.42;;;24.08;;
53269;SDS011;39159;45.634;9.420;2023-02-13T14:52:42;42.28;;;24.60;;
53269;SDS011;39159;45.634;9.420;2023-02-13T14:58:01;43.05;;;24.85;;
53269;SDS011;39159;45.634;9.420;2023-02-13T15:00:43;42.75;;;24.77;;
53269;SDS011;39159;45.634;9.420;2023-02-13T15:05:41;49.08;;;25.67;;
53269;SDS011;39159;45.634;9.420;2023-02-13T15:08:16;44.05;;;23.88;;
53269;SDS011;39159;45.634;9.420;2023-02-13T15:10:49;50.13;;;25.13;;
53269;SDS011;39159;45.634;9.420;2023-02-13T15:13:30;47.13;;;26.30;;
53269;SDS011;39159;45.634;9.420;2023-02-13T15:16:08;40.45;;;23.63;;
53269;SDS011;39159;45.634;9.420;2023-02-13T15:21:08;42.17;;;24.17;;
53269;SDS011;39159;45.634;9.420;2023-02-13T15:23:42;49.90;;;25.23;;
53269;SDS011;39159;45.634;9.420;2023-02-13T15:26:18;49.72;;;25.48;;
53269;SDS011;39159;45.634;9.420;2023-02-13T15:28:56;43.90;;;23.42;;
53269;SDS011;39159;45.634;9.420;2023-02-13T15:31:31;51.75;;;23.92;;
53269;SDS011;39159;45.634;9.420;2023-02-13T15:33:57;43.63;;;24.17;;
53269;SDS011;39159;45.634;9.420;2023-02-13T15:36:24;45.55;;;25.73;;
53269;SDS011;39159;45.634;9.420;2023-02-13T15:38:57;51.97;;;25.48;;
53269;SDS011;39159;45.634;9.420;2023-02-13T15:41:24;53.13;;;25.52;;
53269;SDS011;39159;45.634;9.420;2023-02-13T15:43:57;49.00;;;23.92;;
53269;SDS011;39159;45.634;9.420;2023-02-13T15:46:31;48.33;;;24.95;;
53269;SDS011;39159;45.634;9.420;2023-02-13T15:49:08;41.10;;;23.88;;
53269;SDS011;39159;45.634;9.420;2023-02-13T15:51:41;46.30;;;25.13;;
53269;SDS011;39159;45.634;9.420;2023-02-13T15:54:28;46.35;;;25.05;;
53269;SDS011;39159;45.634;9.420;2023-02-13T15:56:55;46.03;;;24.30;;
53269;SDS011;39159;45.634;9.420;2023-02-13T15:59:23;47.63;;;24.70;;
53269;SDS011;39159;45.634;9.420;2023-02-13T16:01:53;47.00;;;23.88;;
53269;SDS011;39159;45.634;9.420;2023-02-13T16:04:19;41.50;;;23.55;;
53269;SDS011;39159;45.634;9.420;2023-02-13T16:06:53;48.67;;;24.27;;
53269;SDS011;39159;45.634;9.420;2023-02-13T16:09:25;56.60;;;26.02;;
53269;SDS011;39159;45.634;9.420;2023-02-13T16:11:52;47.63;;;26.35;;
53269;SDS011;39159;45.634;9.420;2023-02-13T16:14:24;47.03;;;25.25;;
53269;SDS011;39159;45.634;9.420;2023-02-13T16:25:24;42.25;;;23.17;;
53269;SDS011;39159;45.634;9.420;2023-02-13T16:30:43;44.97;;;23.73;;
53269;SDS011;39159;45.634;9.420;2023-02-13T16:35:43;50.95;;;26.20;;
53269;SDS011;39159;45.634;9.420;2023-02-13T16:40:56;48.17;;;24.08;;
53269;SDS011;39159;45.634;9.420;2023-02-13T16:51:22;43.92;;;23.02;;
53269;SDS011;39159;45.634;9.420;2023-02-13T16:56:46;44.13;;;23.83;;
53269;SDS011;39159;45.634;9.420;2023-02-13T17:07:32;43.30;;;23.38;;
53269;SDS011;39159;45.634;9.420;2023-02-13T17:10:56;42.42;;;23.35;;
53269;SDS011;39159;45.634;9.420;2023-02-13T17:12:54;41.38;;;23.83;;
53269;SDS011;39159;45.634;9.420;2023-02-13T17:15:23;62.30;;;24.88;;
53269;SDS011;39159;45.634;9.420;2023-02-13T17:17:49;42.53;;;22.45;;
53269;SDS011;39159;45.634;9.420;2023-02-13T17:20:16;47.55;;;24.83;;
53269;SDS011;39159;45.634;9.420;2023-02-13T17:22:45;43.78;;;22.50;;
53269;SDS011;39159;45.634;9.420;2023-02-13T17:25:28;46.70;;;23.20;;
53269;SDS011;39159;45.634;9.420;2023-02-13T17:28:19;48.67;;;25.83;;
53269;SDS011;39159;45.634;9.420;2023-02-13T17:30:54;46.55;;;24.35;;
53269;SDS011;39159;45.634;9.420;2023-02-13T17:35:48;47.78;;;26.38;;
53269;SDS011;39159;45.634;9.420;2023-02-13T17:38:14;55.45;;;26.58;;
53269;SDS011;39159;45.634;9.420;2023-02-13T17:40:40;48.97;;;26.55;;
53269;SDS011;39159;45.634;9.420;2023-02-13T17:43:08;45.00;;;23.55;;
53269;SDS011;39159;45.634;9.420;2023-02-13T17:45:37;42.50;;;23.10;;
53269;SDS011;39159;45.634;9.420;2023-02-13T17:48:02;42.45;;;23.88;;
53269;SDS011;39159;45.634;9.420;2023-02-13T17:50:29;45.88;;;25.52;;
53269;SDS011;39159;45.634;9.420;2023-02-13T17:52:55;45.05;;;24.45;;
53269;SDS011;39159;45.634;9.420;2023-02-13T17:55:25;48.60;;;24.67;;
53269;SDS011;39159;45.634;9.420;2023-02-13T17:57:53;42.22;;;23.33;;
53269;SDS011;39159;45.634;9.420;2023-02-13T18:00:23;40.85;;;22.67;;
53269;SDS011;39159;45.634;9.420;2023-02-13T18:02:54;42.60;;;24.17;;
53269;SDS011;39159;45.634;9.420;2023-02-13T18:05:20;45.95;;;24.23;;
53269;SDS011;39159;45.634;9.420;2023-02-13T18:07:46;52.40;;;25.13;;
53269;SDS011;39159;45.634;9.420;2023-02-13T18:10:13;51.83;;;25.48;;
53269;SDS011;39159;45.634;9.420;2023-02-13T18:12:43;48.42;;;27.02;;
53269;SDS011;39159;45.634;9.420;2023-02-13T18:15:10;44.03;;;24.95;;
53269;SDS011;39159;45.634;9.420;2023-02-13T18:17:36;43.25;;;24.10;;